Main page
METAR-TAF:

METAR-TAF

Airports :

Teresina Airport

Teresina, Piauí, Brazil

latitude: 05-03S, longitude: 042-49W, elevation: 69 m

Current weather observation

The report was made 21 minutes ago, at 13:00 UTC
Wind 3 kt from the North/Northeast
Temperature 28°C
Humidity 79%
Pressure 1013 hPa
Visibility 10 km or more
Broken clouds at a height of 1500 ft

METAR: SBTE 261300Z 02003KT 9999 BKN015 28/24 Q1013

Time: 10:21 (13:21 UTC)

Forecast

The report was made 3 hours and 21 minutes ago, at 10:00 UTC
Forecast valid from 26 at 12 UTC to 26 at 24 UTC
Wind 5 kt from the North/Northwest
Visibility 10 km or more
Broken clouds at a height of 1200 ft
Becoming
from 26 at 14 UTC to 26 at 16 UTC
Broken clouds at a height of 2000 ft

TAF: SBTE 261000Z 2612/2624 33005KT 9999 BKN012 TX32/2617Z TN27/2622Z BECMG 2614/2616 BKN020 RMK PAZ

Weather observations and forecasts of more than 4000 airports (METAR and TAF reports).

The available stations are represented by yellow and red dots on the map.

Hover mouse over dot to see the name of the station.

Then click to see weather observations and forecasts.

To change the map : click on the green buttons with a black cross to zoom in, on the green button with a dash to zoom out, or on the green arrows for adjacent maps.


METAR-TAF: